sensor_id;sensor_type;location;lat;lon;timestamp;P1;durP1;ratioP1;P2;durP2;ratioP2
3993;SDS011;2011;48.238;13.948;2022-09-09T00:00:28;83.43;;;10.70;;
3993;SDS011;2011;48.238;13.948;2022-09-09T00:03:01;166.73;;;12.10;;
3993;SDS011;2011;48.238;13.948;2022-09-09T00:05:37;394.27;;;18.23;;
3993;SDS011;2011;48.238;13.948;2022-09-09T00:08:12;183.37;;;12.43;;
3993;SDS011;2011;48.238;13.948;2022-09-09T00:10:44;177.53;;;11.40;;
3993;SDS011;2011;48.238;13.948;2022-09-09T00:13:20;197.50;;;11.73;;
3993;SDS011;2011;48.238;13.948;2022-09-09T00:15:53;119.60;;;10.33;;
3993;SDS011;2011;48.238;13.948;2022-09-09T00:18:25;34.73;;;8.10;;
3993;SDS011;2011;48.238;13.948;2022-09-09T00:20:58;33.00;;;8.50;;
3993;SDS011;2011;48.238;13.948;2022-09-09T00:23:30;38.83;;;9.17;;
3993;SDS011;2011;48.238;13.948;2022-09-09T00:26:02;17.90;;;9.30;;
3993;SDS011;2011;48.238;13.948;2022-09-09T00:28:36;73.40;;;11.17;;
3993;SDS011;2011;48.238;13.948;2022-09-09T00:31:11;47.13;;;12.23;;
3993;SDS011;2011;48.238;13.948;2022-09-09T00:33:39;35.83;;;13.37;;
3993;SDS011;2011;48.238;13.948;2022-09-09T00:36:09;39.63;;;12.00;;
3993;SDS011;2011;48.238;13.948;2022-09-09T00:38:42;49.07;;;12.80;;
3993;SDS011;2011;48.238;13.948;2022-09-09T00:41:13;29.33;;;11.37;;
3993;SDS011;2011;48.238;13.948;2022-09-09T00:43:49;90.73;;;13.43;;
3993;SDS011;2011;48.238;13.948;2022-09-09T00:49:23;92.30;;;16.67;;
3993;SDS011;2011;48.238;13.948;2022-09-09T00:52:03;30.57;;;13.63;;
3993;SDS011;2011;48.238;13.948;2022-09-09T00:54:45;68.87;;;15.30;;
3993;SDS011;2011;48.238;13.948;2022-09-09T00:57:23;105.83;;;17.07;;
3993;SDS011;2011;48.238;13.948;2022-09-09T00:59:58;83.20;;;15.90;;
3993;SDS011;2011;48.238;13.948;2022-09-09T01:02:31;55.37;;;15.70;;
3993;SDS011;2011;48.238;13.948;2022-09-09T01:05:07;119.17;;;17.70;;
3993;SDS011;2011;48.238;13.948;2022-09-09T01:07:40;24.67;;;10.50;;
3993;SDS011;2011;48.238;13.948;2022-09-09T01:10:13;25.50;;;11.87;;
3993;SDS011;2011;48.238;13.948;2022-09-09T01:12:52;27.90;;;10.80;;
3993;SDS011;2011;48.238;13.948;2022-09-09T01:15:24;25.63;;;12.10;;
3993;SDS011;2011;48.238;13.948;2022-09-09T01:17:55;44.87;;;12.37;;
3993;SDS011;2011;48.238;13.948;2022-09-09T01:20:28;40.47;;;12.20;;
3993;SDS011;2011;48.238;13.948;2022-09-09T01:23:11;40.73;;;11.37;;
3993;SDS011;2011;48.238;13.948;2022-09-09T01:28:57;28.20;;;10.57;;
3993;SDS011;2011;48.238;13.948;2022-09-09T01:31:26;108.97;;;11.80;;
3993;SDS011;2011;48.238;13.948;2022-09-09T01:33:56;89.00;;;9.93;;
3993;SDS011;2011;48.238;13.948;2022-09-09T01:36:25;56.13;;;8.40;;
3993;SDS011;2011;48.238;13.948;2022-09-09T01:38:58;123.47;;;9.80;;
3993;SDS011;2011;48.238;13.948;2022-09-09T01:41:25;46.50;;;8.67;;
3993;SDS011;2011;48.238;13.948;2022-09-09T01:43:53;52.60;;;11.10;;
3993;SDS011;2011;48.238;13.948;2022-09-09T01:46:22;24.60;;;10.03;;
3993;SDS011;2011;48.238;13.948;2022-09-09T01:48:50;22.20;;;10.00;;
3993;SDS011;2011;48.238;13.948;2022-09-09T01:51:18;25.60;;;10.73;;
3993;SDS011;2011;48.238;13.948;2022-09-09T01:53:45;20.63;;;9.70;;
3993;SDS011;2011;48.238;13.948;2022-09-09T01:56:17;15.67;;;9.17;;
3993;SDS011;2011;48.238;13.948;2022-09-09T01:58:59;23.83;;;11.13;;
3993;SDS011;2011;48.238;13.948;2022-09-09T02:01:45;30.00;;;12.10;;
3993;SDS011;2011;48.238;13.948;2022-09-09T02:04:28;40.23;;;13.70;;
3993;SDS011;2011;48.238;13.948;2022-09-09T02:07:02;38.57;;;11.70;;
3993;SDS011;2011;48.238;13.948;2022-09-09T02:09:47;27.87;;;9.83;;
3993;SDS011;2011;48.238;13.948;2022-09-09T02:12:22;52.40;;;13.63;;
3993;SDS011;2011;48.238;13.948;2022-09-09T02:14:52;26.63;;;10.90;;
3993;SDS011;2011;48.238;13.948;2022-09-09T02:17:26;37.73;;;12.70;;
3993;SDS011;2011;48.238;13.948;2022-09-09T02:19:56;44.93;;;14.17;;
3993;SDS011;2011;48.238;13.948;2022-09-09T02:22:28;49.10;;;16.30;;
3993;SDS011;2011;48.238;13.948;2022-09-09T02:24:59;42.73;;;14.87;;
3993;SDS011;2011;48.238;13.948;2022-09-09T02:27:26;82.77;;;16.73;;
3993;SDS011;2011;48.238;13.948;2022-09-09T02:29:54;32.80;;;14.93;;
3993;SDS011;2011;48.238;13.948;2022-09-09T02:32:26;67.43;;;15.40;;
3993;SDS011;2011;48.238;13.948;2022-09-09T02:34:56;80.97;;;15.87;;
3993;SDS011;2011;48.238;13.948;2022-09-09T02:37:30;32.23;;;14.10;;
3993;SDS011;2011;48.238;13.948;2022-09-09T02:40:02;25.27;;;14.53;;
3993;SDS011;2011;48.238;13.948;2022-09-09T02:42:30;27.83;;;14.53;;
3993;SDS011;2011;48.238;13.948;2022-09-09T02:44:57;38.40;;;14.60;;
3993;SDS011;2011;48.238;13.948;2022-09-09T02:47:32;35.57;;;14.27;;
3993;SDS011;2011;48.238;13.948;2022-09-09T02:50:03;39.43;;;16.10;;
3993;SDS011;2011;48.238;13.948;2022-09-09T02:52:40;35.73;;;15.37;;
3993;SDS011;2011;48.238;13.948;2022-09-09T02:55:16;47.63;;;16.23;;
3993;SDS011;2011;48.238;13.948;2022-09-09T02:57:47;115.00;;;16.43;;
3993;SDS011;2011;48.238;13.948;2022-09-09T03:00:16;70.83;;;15.83;;
3993;SDS011;2011;48.238;13.948;2022-09-09T03:02:50;235.57;;;20.80;;
3993;SDS011;2011;48.238;13.948;2022-09-09T03:05:18;51.60;;;16.20;;
3993;SDS011;2011;48.238;13.948;2022-09-09T03:07:45;79.87;;;17.27;;
3993;SDS011;2011;48.238;13.948;2022-09-09T03:10:12;70.30;;;18.07;;
3993;SDS011;2011;48.238;13.948;2022-09-09T03:12:40;71.60;;;17.80;;
3993;SDS011;2011;48.238;13.948;2022-09-09T03:15:08;38.63;;;15.27;;
3993;SDS011;2011;48.238;13.948;2022-09-09T03:17:35;31.90;;;17.30;;
3993;SDS011;2011;48.238;13.948;2022-09-09T03:20:04;38.03;;;15.67;;
3993;SDS011;2011;48.238;13.948;2022-09-09T03:22:32;27.40;;;14.90;;
3993;SDS011;2011;48.238;13.948;2022-09-09T03:24:59;29.40;;;15.53;;
3993;SDS011;2011;48.238;13.948;2022-09-09T03:27:26;31.93;;;15.00;;
3993;SDS011;2011;48.238;13.948;2022-09-09T03:29:53;28.60;;;16.80;;
3993;SDS011;2011;48.238;13.948;2022-09-09T03:32:21;25.93;;;15.70;;
3993;SDS011;2011;48.238;13.948;2022-09-09T03:34:50;41.17;;;16.33;;
3993;SDS011;2011;48.238;13.948;2022-09-09T03:37:19;62.27;;;16.83;;
3993;SDS011;2011;48.238;13.948;2022-09-09T03:39:47;35.60;;;15.73;;
3993;SDS011;2011;48.238;13.948;2022-09-09T03:42:14;96.13;;;17.03;;
3993;SDS011;2011;48.238;13.948;2022-09-09T03:44:43;31.83;;;16.00;;
3993;SDS011;2011;48.238;13.948;2022-09-09T03:47:14;31.83;;;15.80;;
3993;SDS011;2011;48.238;13.948;2022-09-09T03:49:43;50.83;;;15.07;;
3993;SDS011;2011;48.238;13.948;2022-09-09T03:52:10;34.00;;;14.10;;
3993;SDS011;2011;48.238;13.948;2022-09-09T03:54:38;83.27;;;17.60;;
3993;SDS011;2011;48.238;13.948;2022-09-09T03:57:07;262.73;;;19.07;;
3993;SDS011;2011;48.238;13.948;2022-09-09T03:59:35;335.67;;;22.70;;
3993;SDS011;2011;48.238;13.948;2022-09-09T04:02:02;105.03;;;15.87;;
3993;SDS011;2011;48.238;13.948;2022-09-09T04:04:29;260.23;;;22.20;;
3993;SDS011;2011;48.238;13.948;2022-09-09T04:06:56;134.27;;;20.50;;
3993;SDS011;2011;48.238;13.948;2022-09-09T04:09:23;68.17;;;19.20;;
3993;SDS011;2011;48.238;13.948;2022-09-09T04:11:51;33.23;;;15.70;;
3993;SDS011;2011;48.238;13.948;2022-09-09T04:14:18;22.50;;;14.60;;
3993;SDS011;2011;48.238;13.948;2022-09-09T04:16:45;28.40;;;16.07;;
3993;SDS011;2011;48.238;13.948;2022-09-09T04:19:12;55.80;;;20.20;;
3993;SDS011;2011;48.238;13.948;2022-09-09T04:21:40;30.03;;;16.67;;
3993;SDS011;2011;48.238;13.948;2022-09-09T04:24:07;37.20;;;16.40;;
3993;SDS011;2011;48.238;13.948;2022-09-09T04:26:34;38.93;;;16.70;;
3993;SDS011;2011;48.238;13.948;2022-09-09T04:29:04;203.67;;;23.30;;
3993;SDS011;2011;48.238;13.948;2022-09-09T04:31:32;71.50;;;17.33;;
3993;SDS011;2011;48.238;13.948;2022-09-09T04:33:59;58.03;;;20.13;;
3993;SDS011;2011;48.238;13.948;2022-09-09T04:36:30;180.53;;;24.30;;
3993;SDS011;2011;48.238;13.948;2022-09-09T04:38:58;80.87;;;18.03;;
3993;SDS011;2011;48.238;13.948;2022-09-09T04:41:25;60.77;;;19.47;;
3993;SDS011;2011;48.238;13.948;2022-09-09T04:43:52;93.27;;;20.80;;
3993;SDS011;2011;48.238;13.948;2022-09-09T04:46:21;61.60;;;19.30;;
3993;SDS011;2011;48.238;13.948;2022-09-09T04:48:48;65.53;;;18.43;;
3993;SDS011;2011;48.238;13.948;2022-09-09T04:51:16;31.80;;;16.87;;
3993;SDS011;2011;48.238;13.948;2022-09-09T04:53:43;42.53;;;18.20;;
3993;SDS011;2011;48.238;13.948;2022-09-09T04:56:12;25.43;;;16.13;;
3993;SDS011;2011;48.238;13.948;2022-09-09T04:58:40;150.30;;;20.07;;
3993;SDS011;2011;48.238;13.948;2022-09-09T05:01:08;94.77;;;19.43;;
3993;SDS011;2011;48.238;13.948;2022-09-09T05:03:38;42.17;;;17.00;;
3993;SDS011;2011;48.238;13.948;2022-09-09T05:06:06;49.73;;;14.70;;
3993;SDS011;2011;48.238;13.948;2022-09-09T05:08:34;62.20;;;16.70;;
3993;SDS011;2011;48.238;13.948;2022-09-09T05:11:02;31.90;;;14.50;;
3993;SDS011;2011;48.238;13.948;2022-09-09T05:13:29;26.17;;;14.03;;
3993;SDS011;2011;48.238;13.948;2022-09-09T05:15:57;20.87;;;12.87;;
3993;SDS011;2011;48.238;13.948;2022-09-09T05:18:24;22.00;;;13.73;;
3993;SDS011;2011;48.238;13.948;2022-09-09T05:20:56;69.60;;;17.20;;
3993;SDS011;2011;48.238;13.948;2022-09-09T05:23:25;31.27;;;12.30;;
3993;SDS011;2011;48.238;13.948;2022-09-09T05:25:56;22.43;;;11.70;;
3993;SDS011;2011;48.238;13.948;2022-09-09T05:28:23;39.30;;;13.80;;
3993;SDS011;2011;48.238;13.948;2022-09-09T05:30:55;25.93;;;12.70;;
3993;SDS011;2011;48.238;13.948;2022-09-09T05:33:23;18.10;;;12.00;;
3993;SDS011;2011;48.238;13.948;2022-09-09T05:35:56;17.60;;;11.10;;
3993;SDS011;2011;48.238;13.948;2022-09-09T05:38:23;28.90;;;12.77;;
3993;SDS011;2011;48.238;13.948;2022-09-09T05:40:51;23.40;;;11.87;;
3993;SDS011;2011;48.238;13.948;2022-09-09T05:43:18;21.50;;;11.30;;
3993;SDS011;2011;48.238;13.948;2022-09-09T05:45:45;33.30;;;14.00;;
3993;SDS011;2011;48.238;13.948;2022-09-09T05:48:13;29.80;;;11.10;;
3993;SDS011;2011;48.238;13.948;2022-09-09T05:50:41;27.13;;;12.53;;
3993;SDS011;2011;48.238;13.948;2022-09-09T05:53:11;19.90;;;11.10;;
3993;SDS011;2011;48.238;13.948;2022-09-09T05:55:38;19.17;;;12.13;;
3993;SDS011;2011;48.238;13.948;2022-09-09T05:58:05;26.83;;;11.93;;
3993;SDS011;2011;48.238;13.948;2022-09-09T06:00:32;27.30;;;12.00;;
3993;SDS011;2011;48.238;13.948;2022-09-09T06:02:59;18.23;;;11.77;;
3993;SDS011;2011;48.238;13.948;2022-09-09T06:05:26;19.00;;;10.93;;
3993;SDS011;2011;48.238;13.948;2022-09-09T06:07:53;19.23;;;10.83;;
3993;SDS011;2011;48.238;13.948;2022-09-09T06:10:22;15.90;;;11.03;;
3993;SDS011;2011;48.238;13.948;2022-09-09T06:12:51;17.23;;;11.30;;
3993;SDS011;2011;48.238;13.948;2022-09-09T06:15:19;15.20;;;10.13;;
3993;SDS011;2011;48.238;13.948;2022-09-09T06:17:47;17.67;;;10.13;;
3993;SDS011;2011;48.238;13.948;2022-09-09T06:20:19;20.47;;;12.37;;
3993;SDS011;2011;48.238;13.948;2022-09-09T06:22:47;18.00;;;10.20;;
3993;SDS011;2011;48.238;13.948;2022-09-09T06:25:13;22.27;;;12.90;;
3993;SDS011;2011;48.238;13.948;2022-09-09T06:27:42;20.13;;;12.47;;
3993;SDS011;2011;48.238;13.948;2022-09-09T06:30:09;20.50;;;11.83;;
3993;SDS011;2011;48.238;13.948;2022-09-09T06:32:37;21.20;;;12.90;;
3993;SDS011;2011;48.238;13.948;2022-09-09T06:35:04;18.57;;;12.17;;
3993;SDS011;2011;48.238;13.948;2022-09-09T06:37:32;25.07;;;13.70;;
3993;SDS011;2011;48.238;13.948;2022-09-09T06:39:59;24.77;;;13.60;;
3993;SDS011;2011;48.238;13.948;2022-09-09T06:42:27;25.80;;;13.40;;
3993;SDS011;2011;48.238;13.948;2022-09-09T06:44:55;25.23;;;14.10;;
3993;SDS011;2011;48.238;13.948;2022-09-09T06:47:22;47.43;;;19.20;;
3993;SDS011;2011;48.238;13.948;2022-09-09T06:49:49;34.27;;;17.77;;
3993;SDS011;2011;48.238;13.948;2022-09-09T06:52:16;36.17;;;16.50;;
3993;SDS011;2011;48.238;13.948;2022-09-09T06:54:44;36.50;;;18.70;;
3993;SDS011;2011;48.238;13.948;2022-09-09T06:57:11;34.40;;;16.77;;
3993;SDS011;2011;48.238;13.948;2022-09-09T06:59:38;30.23;;;17.63;;
3993;SDS011;2011;48.238;13.948;2022-09-09T07:02:06;40.87;;;22.53;;
3993;SDS011;2011;48.238;13.948;2022-09-09T07:04:34;36.97;;;19.97;;
3993;SDS011;2011;48.238;13.948;2022-09-09T07:07:02;46.70;;;23.07;;
3993;SDS011;2011;48.238;13.948;2022-09-09T07:09:29;51.70;;;25.20;;
3993;SDS011;2011;48.238;13.948;2022-09-09T07:11:56;62.10;;;28.57;;
3993;SDS011;2011;48.238;13.948;2022-09-09T07:14:24;55.83;;;29.30;;
3993;SDS011;2011;48.238;13.948;2022-09-09T07:16:52;52.40;;;26.00;;
3993;SDS011;2011;48.238;13.948;2022-09-09T07:19:20;44.77;;;23.70;;
3993;SDS011;2011;48.238;13.948;2022-09-09T07:21:47;38.50;;;21.47;;
3993;SDS011;2011;48.238;13.948;2022-09-09T07:24:14;37.03;;;20.70;;
3993;SDS011;2011;48.238;13.948;2022-09-09T07:26:41;42.30;;;19.90;;
3993;SDS011;2011;48.238;13.948;2022-09-09T07:29:09;36.00;;;20.87;;
3993;SDS011;2011;48.238;13.948;2022-09-09T07:31:39;38.10;;;20.47;;
3993;SDS011;2011;48.238;13.948;2022-09-09T07:34:06;38.83;;;21.67;;
3993;SDS011;2011;48.238;13.948;2022-09-09T07:36:35;39.50;;;19.80;;
3993;SDS011;2011;48.238;13.948;2022-09-09T07:39:04;39.60;;;20.83;;
3993;SDS011;2011;48.238;13.948;2022-09-09T07:41:33;40.47;;;21.63;;
3993;SDS011;2011;48.238;13.948;2022-09-09T07:44:04;42.27;;;19.63;;
3993;SDS011;2011;48.238;13.948;2022-09-09T07:46:33;39.10;;;19.20;;
3993;SDS011;2011;48.238;13.948;2022-09-09T07:49:00;28.00;;;15.50;;
3993;SDS011;2011;48.238;13.948;2022-09-09T07:51:29;31.30;;;16.00;;
3993;SDS011;2011;48.238;13.948;2022-09-09T07:54:00;24.10;;;15.33;;
3993;SDS011;2011;48.238;13.948;2022-09-09T07:56:28;24.93;;;14.90;;
3993;SDS011;2011;48.238;13.948;2022-09-09T07:58:56;26.70;;;15.63;;
3993;SDS011;2011;48.238;13.948;2022-09-09T08:01:25;23.07;;;13.67;;
3993;SDS011;2011;48.238;13.948;2022-09-09T08:03:54;26.83;;;14.67;;
3993;SDS011;2011;48.238;13.948;2022-09-09T08:06:24;23.07;;;13.80;;
3993;SDS011;2011;48.238;13.948;2022-09-09T08:08:52;26.00;;;15.37;;
3993;SDS011;2011;48.238;13.948;2022-09-09T08:11:22;25.53;;;15.00;;
3993;SDS011;2011;48.238;13.948;2022-09-09T08:13:50;27.40;;;14.70;;
3993;SDS011;2011;48.238;13.948;2022-09-09T08:16:18;26.30;;;13.93;;
3993;SDS011;2011;48.238;13.948;2022-09-09T08:18:47;43.50;;;17.43;;
3993;SDS011;2011;48.238;13.948;2022-09-09T08:21:15;27.43;;;15.33;;
3993;SDS011;2011;48.238;13.948;2022-09-09T08:23:44;33.50;;;15.60;;
3993;SDS011;2011;48.238;13.948;2022-09-09T08:26:12;21.47;;;13.00;;
3993;SDS011;2011;48.238;13.948;2022-09-09T08:28:42;29.00;;;15.60;;
3993;SDS011;2011;48.238;13.948;2022-09-09T08:31:10;25.13;;;14.53;;
3993;SDS011;2011;48.238;13.948;2022-09-09T08:33:39;26.47;;;13.93;;
3993;SDS011;2011;48.238;13.948;2022-09-09T08:36:08;18.93;;;12.83;;
3993;SDS011;2011;48.238;13.948;2022-09-09T08:38:37;22.30;;;14.60;;
3993;SDS011;2011;48.238;13.948;2022-09-09T08:41:13;26.87;;;15.30;;
3993;SDS011;2011;48.238;13.948;2022-09-09T08:44:00;24.67;;;14.27;;
3993;SDS011;2011;48.238;13.948;2022-09-09T08:46:32;22.90;;;14.47;;
3993;SDS011;2011;48.238;13.948;2022-09-09T08:49:13;22.53;;;14.10;;
3993;SDS011;2011;48.238;13.948;2022-09-09T08:51:50;23.97;;;14.77;;
3993;SDS011;2011;48.238;13.948;2022-09-09T08:54:21;27.10;;;14.97;;
3993;SDS011;2011;48.238;13.948;2022-09-09T08:56:49;25.20;;;14.30;;
3993;SDS011;2011;48.238;13.948;2022-09-09T08:59:18;30.63;;;17.07;;
3993;SDS011;2011;48.238;13.948;2022-09-09T09:01:49;24.10;;;14.93;;
3993;SDS011;2011;48.238;13.948;2022-09-09T09:04:29;28.33;;;16.87;;
3993;SDS011;2011;48.238;13.948;2022-09-09T09:07:04;33.50;;;15.60;;
3993;SDS011;2011;48.238;13.948;2022-09-09T09:09:40;38.53;;;17.77;;
3993;SDS011;2011;48.238;13.948;2022-09-09T09:12:16;34.80;;;18.77;;
3993;SDS011;2011;48.238;13.948;2022-09-09T09:14:47;40.63;;;19.87;;
3993;SDS011;2011;48.238;13.948;2022-09-09T09:17:14;35.10;;;18.47;;
3993;SDS011;2011;48.238;13.948;2022-09-09T09:19:46;34.47;;;17.40;;
3993;SDS011;2011;48.238;13.948;2022-09-09T09:22:16;23.87;;;15.00;;
3993;SDS011;2011;48.238;13.948;2022-09-09T09:24:50;24.47;;;12.70;;
3993;SDS011;2011;48.238;13.948;2022-09-09T09:27:21;25.70;;;14.80;;
3993;SDS011;2011;48.238;13.948;2022-09-09T09:29:59;16.73;;;11.10;;
3993;SDS011;2011;48.238;13.948;2022-09-09T09:32:28;13.30;;;8.93;;
3993;SDS011;2011;48.238;13.948;2022-09-09T09:35:00;15.27;;;9.60;;
3993;SDS011;2011;48.238;13.948;2022-09-09T09:37:34;12.00;;;7.40;;
3993;SDS011;2011;48.238;13.948;2022-09-09T09:40:08;9.43;;;4.83;;
3993;SDS011;2011;48.238;13.948;2022-09-09T09:42:35;12.80;;;4.80;;
3993;SDS011;2011;48.238;13.948;2022-09-09T09:45:16;15.23;;;6.50;;
3993;SDS011;2011;48.238;13.948;2022-09-09T09:47:57;10.57;;;6.20;;
3993;SDS011;2011;48.238;13.948;2022-09-09T09:50:28;8.90;;;5.90;;
3993;SDS011;2011;48.238;13.948;2022-09-09T09:52:57;14.07;;;7.10;;
3993;SDS011;2011;48.238;13.948;2022-09-09T09:55:26;11.67;;;5.90;;
3993;SDS011;2011;48.238;13.948;2022-09-09T09:58:05;10.53;;;6.40;;
3993;SDS011;2011;48.238;13.948;2022-09-09T10:00:34;12.47;;;6.70;;
3993;SDS011;2011;48.238;13.948;2022-09-09T10:03:01;12.83;;;6.90;;
3993;SDS011;2011;48.238;13.948;2022-09-09T10:05:39;15.20;;;8.57;;
3993;SDS011;2011;48.238;13.948;2022-09-09T10:08:13;17.73;;;10.60;;
3993;SDS011;2011;48.238;13.948;2022-09-09T10:13:44;35.70;;;18.30;;
3993;SDS011;2011;48.238;13.948;2022-09-09T10:16:20;32.97;;;17.60;;
3993;SDS011;2011;48.238;13.948;2022-09-09T10:18:58;37.60;;;18.90;;
3993;SDS011;2011;48.238;13.948;2022-09-09T10:21:37;35.27;;;19.00;;
3993;SDS011;2011;48.238;13.948;2022-09-09T10:24:26;33.00;;;19.73;;
3993;SDS011;2011;48.238;13.948;2022-09-09T10:27:05;32.50;;;19.97;;
3993;SDS011;2011;48.238;13.948;2022-09-09T10:29:54;47.77;;;21.00;;
3993;SDS011;2011;48.238;13.948;2022-09-09T10:32:36;35.90;;;20.27;;
3993;SDS011;2011;48.238;13.948;2022-09-09T10:35:10;33.10;;;19.67;;
3993;SDS011;2011;48.238;13.948;2022-09-09T10:40:40;28.90;;;18.67;;
3993;SDS011;2011;48.238;13.948;2022-09-09T10:43:19;31.13;;;19.77;;
3993;SDS011;2011;48.238;13.948;2022-09-09T10:45:57;27.73;;;18.97;;
3993;SDS011;2011;48.238;13.948;2022-09-09T10:48:34;29.83;;;18.40;;
3993;SDS011;2011;48.238;13.948;2022-09-09T10:51:18;26.97;;;16.30;;
3993;SDS011;2011;48.238;13.948;2022-09-09T10:53:53;28.07;;;15.63;;
3993;SDS011;2011;48.238;13.948;2022-09-09T10:56:32;21.83;;;12.33;;
3993;SDS011;2011;48.238;13.948;2022-09-09T10:59:00;22.77;;;11.70;;
3993;SDS011;2011;48.238;13.948;2022-09-09T11:01:34;15.60;;;10.50;;
3993;SDS011;2011;48.238;13.948;2022-09-09T11:04:10;16.47;;;10.13;;
3993;SDS011;2011;48.238;13.948;2022-09-09T11:06:43;15.90;;;10.17;;
3993;SDS011;2011;48.238;13.948;2022-09-09T11:09:18;16.97;;;9.80;;
3993;SDS011;2011;48.238;13.948;2022-09-09T11:11:49;19.30;;;8.37;;
3993;SDS011;2011;48.238;13.948;2022-09-09T11:14:19;11.13;;;7.10;;
3993;SDS011;2011;48.238;13.948;2022-09-09T11:16:52;11.90;;;6.30;;
3993;SDS011;2011;48.238;13.948;2022-09-09T11:19:24;8.63;;;5.77;;
3993;SDS011;2011;48.238;13.948;2022-09-09T11:21:56;10.17;;;6.10;;
3993;SDS011;2011;48.238;13.948;2022-09-09T11:24:28;19.80;;;6.40;;
3993;SDS011;2011;48.238;13.948;2022-09-09T11:26:58;10.57;;;6.30;;
3993;SDS011;2011;48.238;13.948;2022-09-09T11:32:39;11.57;;;6.10;;
3993;SDS011;2011;48.238;13.948;2022-09-09T11:35:24;11.67;;;7.10;;
3993;SDS011;2011;48.238;13.948;2022-09-09T11:38:10;11.00;;;6.30;;
3993;SDS011;2011;48.238;13.948;2022-09-09T11:40:54;10.57;;;6.67;;
3993;SDS011;2011;48.238;13.948;2022-09-09T11:43:25;19.27;;;7.33;;
3993;SDS011;2011;48.238;13.948;2022-09-09T11:45:56;13.67;;;8.17;;
3993;SDS011;2011;48.238;13.948;2022-09-09T11:48:29;19.70;;;8.37;;
3993;SDS011;2011;48.238;13.948;2022-09-09T11:51:02;12.93;;;7.63;;
3993;SDS011;2011;48.238;13.948;2022-09-09T11:53:32;17.90;;;8.40;;
3993;SDS011;2011;48.238;13.948;2022-09-09T11:56:01;16.07;;;8.83;;
3993;SDS011;2011;48.238;13.948;2022-09-09T11:58:31;14.80;;;8.73;;
3993;SDS011;2011;48.238;13.948;2022-09-09T12:01:13;14.57;;;8.10;;
3993;SDS011;2011;48.238;13.948;2022-09-09T12:04:12;11.70;;;8.60;;
3993;SDS011;2011;48.238;13.948;2022-09-09T12:06:46;12.10;;;8.70;;
3993;SDS011;2011;48.238;13.948;2022-09-09T12:09:18;15.33;;;9.97;;
3993;SDS011;2011;48.238;13.948;2022-09-09T12:11:49;14.27;;;8.80;;
3993;SDS011;2011;48.238;13.948;2022-09-09T12:14:20;15.27;;;8.33;;
3993;SDS011;2011;48.238;13.948;2022-09-09T12:16:48;20.60;;;10.60;;
3993;SDS011;2011;48.238;13.948;2022-09-09T12:19:16;14.17;;;8.60;;
3993;SDS011;2011;48.238;13.948;2022-09-09T12:21:51;11.80;;;7.10;;
3993;SDS011;2011;48.238;13.948;2022-09-09T12:24:26;17.00;;;9.17;;
3993;SDS011;2011;48.238;13.948;2022-09-09T12:27:00;11.00;;;7.40;;
3993;SDS011;2011;48.238;13.948;2022-09-09T12:29:36;13.07;;;7.70;;
3993;SDS011;2011;48.238;13.948;2022-09-09T12:32:11;11.80;;;7.60;;
3993;SDS011;2011;48.238;13.948;2022-09-09T12:34:42;22.33;;;8.40;;
3993;SDS011;2011;48.238;13.948;2022-09-09T12:37:17;15.43;;;7.87;;
3993;SDS011;2011;48.238;13.948;2022-09-09T12:39:51;15.63;;;8.17;;
3993;SDS011;2011;48.238;13.948;2022-09-09T12:42:22;15.60;;;8.97;;
3993;SDS011;2011;48.238;13.948;2022-09-09T12:44:53;11.80;;;8.17;;
3993;SDS011;2011;48.238;13.948;2022-09-09T12:47:21;14.00;;;8.97;;
3993;SDS011;2011;48.238;13.948;2022-09-09T12:49:52;15.60;;;8.90;;
3993;SDS011;2011;48.238;13.948;2022-09-09T12:52:25;17.77;;;9.90;;
3993;SDS011;2011;48.238;13.948;2022-09-09T12:54:56;14.30;;;9.73;;
3993;SDS011;2011;48.238;13.948;2022-09-09T12:57:25;17.37;;;11.10;;
3993;SDS011;2011;48.238;13.948;2022-09-09T13:00:03;18.83;;;10.70;;
3993;SDS011;2011;48.238;13.948;2022-09-09T13:02:45;18.80;;;11.50;;
3993;SDS011;2011;48.238;13.948;2022-09-09T13:05:16;17.40;;;10.87;;
3993;SDS011;2011;48.238;13.948;2022-09-09T13:07:47;17.30;;;11.10;;
3993;SDS011;2011;48.238;13.948;2022-09-09T13:10:15;22.90;;;10.80;;
3993;SDS011;2011;48.238;13.948;2022-09-09T13:12:52;16.83;;;10.63;;
3993;SDS011;2011;48.238;13.948;2022-09-09T13:15:20;19.00;;;11.47;;
3993;SDS011;2011;48.238;13.948;2022-09-09T13:17:50;21.50;;;11.00;;
3993;SDS011;2011;48.238;13.948;2022-09-09T13:20:20;22.20;;;12.50;;
3993;SDS011;2011;48.238;13.948;2022-09-09T13:22:50;21.63;;;11.40;;
3993;SDS011;2011;48.238;13.948;2022-09-09T13:25:20;19.37;;;11.30;;
3993;SDS011;2011;48.238;13.948;2022-09-09T13:27:52;18.83;;;11.60;;
3993;SDS011;2011;48.238;13.948;2022-09-09T13:30:23;20.23;;;11.30;;
3993;SDS011;2011;48.238;13.948;2022-09-09T13:33:02;19.30;;;12.20;;
3993;SDS011;2011;48.238;13.948;2022-09-09T13:35:47;19.10;;;11.10;;
3993;SDS011;2011;48.238;13.948;2022-09-09T13:38:18;16.83;;;11.70;;
3993;SDS011;2011;48.238;13.948;2022-09-09T13:40:57;19.73;;;11.30;;
3993;SDS011;2011;48.238;13.948;2022-09-09T13:43:27;19.13;;;11.07;;
3993;SDS011;2011;48.238;13.948;2022-09-09T13:45:56;26.40;;;11.00;;
3993;SDS011;2011;48.238;13.948;2022-09-09T13:48:25;18.40;;;11.53;;
3993;SDS011;2011;48.238;13.948;2022-09-09T13:50:59;19.87;;;12.70;;
3993;SDS011;2011;48.238;13.948;2022-09-09T13:53:31;22.53;;;11.73;;
3993;SDS011;2011;48.238;13.948;2022-09-09T13:55:58;22.93;;;12.13;;
3993;SDS011;2011;48.238;13.948;2022-09-09T13:58:26;21.60;;;11.77;;
3993;SDS011;2011;48.238;13.948;2022-09-09T14:00:53;17.60;;;11.07;;
3993;SDS011;2011;48.238;13.948;2022-09-09T14:03:20;30.07;;;11.70;;
3993;SDS011;2011;48.238;13.948;2022-09-09T14:05:47;19.33;;;12.00;;
3993;SDS011;2011;48.238;13.948;2022-09-09T14:08:17;21.00;;;11.53;;
3993;SDS011;2011;48.238;13.948;2022-09-09T14:10:50;27.23;;;11.33;;
3993;SDS011;2011;48.238;13.948;2022-09-09T14:13:17;33.70;;;11.77;;
3993;SDS011;2011;48.238;13.948;2022-09-09T14:15:47;21.60;;;13.10;;
3993;SDS011;2011;48.238;13.948;2022-09-09T14:18:14;18.17;;;11.03;;
3993;SDS011;2011;48.238;13.948;2022-09-09T14:20:41;26.47;;;12.17;;
3993;SDS011;2011;48.238;13.948;2022-09-09T14:23:10;19.33;;;12.17;;
3993;SDS011;2011;48.238;13.948;2022-09-09T14:25:39;25.93;;;13.10;;
3993;SDS011;2011;48.238;13.948;2022-09-09T14:28:10;24.63;;;12.17;;
3993;SDS011;2011;48.238;13.948;2022-09-09T14:30:38;19.00;;;11.47;;
3993;SDS011;2011;48.238;13.948;2022-09-09T14:33:07;21.67;;;12.80;;
3993;SDS011;2011;48.238;13.948;2022-09-09T14:35:35;22.80;;;11.70;;
3993;SDS011;2011;48.238;13.948;2022-09-09T14:38:03;20.47;;;11.93;;
3993;SDS011;2011;48.238;13.948;2022-09-09T14:40:31;23.97;;;15.20;;
3993;SDS011;2011;48.238;13.948;2022-09-09T14:42:59;24.50;;;14.37;;
3993;SDS011;2011;48.238;13.948;2022-09-09T14:45:28;20.57;;;12.00;;
3993;SDS011;2011;48.238;13.948;2022-09-09T14:47:55;20.60;;;12.40;;
3993;SDS011;2011;48.238;13.948;2022-09-09T14:50:23;19.60;;;11.63;;
3993;SDS011;2011;48.238;13.948;2022-09-09T14:52:50;20.57;;;11.30;;
3993;SDS011;2011;48.238;13.948;2022-09-09T14:55:17;17.87;;;11.00;;
3993;SDS011;2011;48.238;13.948;2022-09-09T14:57:44;22.57;;;11.53;;
3993;SDS011;2011;48.238;13.948;2022-09-09T15:00:12;22.03;;;11.30;;
3993;SDS011;2011;48.238;13.948;2022-09-09T15:02:40;16.40;;;10.40;;
3993;SDS011;2011;48.238;13.948;2022-09-09T15:05:07;18.67;;;10.00;;
3993;SDS011;2011;48.238;13.948;2022-09-09T15:07:35;17.33;;;10.67;;
3993;SDS011;2011;48.238;13.948;2022-09-09T15:10:03;19.97;;;11.00;;
3993;SDS011;2011;48.238;13.948;2022-09-09T15:12:31;15.00;;;10.17;;